createdAt,value
2024-05-09T00:00:36.252Z,96965.03
2024-05-09T00:03:08.610Z,96997.63
2024-05-09T00:05:37.068Z,96993.69
2024-05-09T00:08:04.741Z,96987.41
2024-05-09T00:10:36.562Z,96982.00
2024-05-09T00:13:06.662Z,96984.34
2024-05-09T00:15:34.340Z,96959.44
2024-05-09T00:18:02.065Z,96983.50
2024-05-09T00:20:37.340Z,96977.91
2024-05-09T00:23:08.122Z,96968.38
2024-05-09T00:25:35.554Z,96947.72
2024-05-09T00:28:03.185Z,96974.78
2024-05-09T00:30:34.904Z,96974.78
2024-05-09T00:33:08.511Z,96969.97
2024-05-09T00:35:36.986Z,96970.91
2024-05-09T00:38:04.405Z,96970.44
2024-05-09T00:40:43.204Z,96972.00
2024-05-09T00:43:14.905Z,96979.97
2024-05-09T00:45:43.690Z,96969.13
2024-05-09T00:48:14.133Z,96965.88
2024-05-09T00:50:45.238Z,96966.69
2024-05-09T00:53:15.391Z,96984.63
2024-05-09T00:55:42.851Z,96973.81
2024-05-09T00:58:12.302Z,96976.16
2024-05-09T01:00:41.351Z,96922.94
2024-05-09T01:03:11.881Z,96969.00
2024-05-09T01:05:41.040Z,96969.84
2024-05-09T01:08:09.013Z,96971.78
2024-05-09T01:10:37.092Z,96946.00
2024-05-09T01:13:07.523Z,96972.69
2024-05-09T01:15:35.826Z,96966.34
2024-05-09T01:18:10.583Z,96955.22
2024-05-09T01:20:42.373Z,96931.31
2024-05-09T01:23:12.422Z,96976.66
2024-05-09T01:25:40.073Z,96868.94
2024-05-09T01:28:07.375Z,96975.84
2024-05-09T01:30:36.811Z,96961.44
2024-05-09T01:33:09.586Z,96935.16
2024-05-09T01:35:39.239Z,96967.66
2024-05-09T01:38:07.593Z,96970.47
2024-05-09T01:40:38.592Z,96963.81
2024-05-09T01:43:11.412Z,96935.97
2024-05-09T01:45:40.084Z,96959.03
2024-05-09T01:48:08.136Z,96971.69
2024-05-09T01:50:39.651Z,96971.69
2024-05-09T01:53:14.738Z,96966.09
2024-05-09T01:55:42.150Z,96972.09
2024-05-09T01:58:09.812Z,96964.19
2024-05-09T02:00:40.822Z,96972.50
2024-05-09T02:03:13.696Z,96943.03
2024-05-09T02:05:44.310Z,96857.97
2024-05-09T02:08:15.398Z,96975.81
2024-05-09T02:10:44.335Z,96977.88
2024-05-09T02:13:11.448Z,96973.50
2024-05-09T02:15:38.375Z,96960.78
2024-05-09T02:18:05.983Z,96969.47
2024-05-09T02:20:36.454Z,96830.28
2024-05-09T02:23:06.567Z,96971.13
2024-05-09T02:25:34.139Z,96984.69
2024-05-09T02:28:01.506Z,96973.16
2024-05-09T02:32:58.313Z,96965.19
2024-05-09T02:35:26.608Z,96908.31
2024-05-09T02:37:53.695Z,96964.84
2024-05-09T02:40:28.310Z,96977.66
2024-05-09T02:43:01.005Z,96972.06
2024-05-09T02:45:27.912Z,96966.53
2024-05-09T02:47:55.092Z,96857.50
2024-05-09T02:50:29.888Z,96929.88
2024-05-09T02:53:03.974Z,96981.66
2024-05-09T02:55:30.874Z,96827.25
2024-05-09T02:57:57.756Z,96979.28
2024-05-09T03:00:34.182Z,96968.94
2024-05-09T03:03:07.212Z,96877.44
2024-05-09T03:05:34.623Z,96981.72
2024-05-09T03:08:01.670Z,96990.13
2024-05-09T03:10:29.335Z,96915.59
2024-05-09T03:13:05.827Z,96994.50
2024-05-09T03:15:33.210Z,96977.69
2024-05-09T03:18:01.344Z,97005.97
2024-05-09T03:20:34.009Z,96933.06
2024-05-09T03:23:03.212Z,96998.44
2024-05-09T03:25:30.309Z,96978.44
2024-05-09T03:27:57.183Z,96993.22
2024-05-09T03:30:36.012Z,96935.09
2024-05-09T03:33:17.987Z,96994.47
2024-05-09T03:35:47.306Z,96965.41
2024-05-09T03:38:14.501Z,96993.28
2024-05-09T03:40:46.235Z,97011.22
2024-05-09T03:43:13.752Z,96992.50
2024-05-09T03:45:40.736Z,96966.22
2024-05-09T03:48:08.473Z,96965.03
2024-05-09T03:50:36.858Z,96992.91
2024-05-09T03:53:04.783Z,96945.91
2024-05-09T03:55:31.943Z,97007.25
2024-05-09T03:57:59.166Z,97005.66
2024-05-09T04:00:34.596Z,97008.03
2024-05-09T04:03:07.767Z,97003.25
2024-05-09T04:05:38.155Z,97012.03
2024-05-09T04:08:05.794Z,97006.03
2024-05-09T04:10:34.495Z,96997.69
2024-05-09T04:13:03.470Z,97013.63
2024-05-09T04:15:31.044Z,96972.94
2024-05-09T04:17:58.216Z,97015.22
2024-05-09T04:20:35.872Z,97024.75
2024-05-09T04:23:07.504Z,96946.63
2024-05-09T04:25:35.222Z,96963.78
2024-05-09T04:28:02.124Z,96996.88
2024-05-09T04:30:36.847Z,97012.84
2024-05-09T04:33:08.039Z,96993.69
2024-05-09T04:35:36.698Z,97016.00
2024-05-09T04:38:04.260Z,97018.00
2024-05-09T04:40:34.623Z,97012.84
2024-05-09T04:43:07.648Z,97012.03
2024-05-09T04:45:35.155Z,96954.66
2024-05-09T04:48:02.696Z,97001.66
2024-05-09T04:50:36.287Z,96926.00
2024-05-09T04:53:07.489Z,96980.16
2024-05-09T04:55:35.972Z,96963.03
2024-05-09T04:58:02.931Z,97022.38
2024-05-09T05:00:35.942Z,97019.19
2024-05-09T05:03:10.868Z,97023.19
2024-05-09T05:05:41.035Z,97020.00
2024-05-09T05:08:16.284Z,97019.97
2024-05-09T05:10:44.230Z,97004.88
2024-05-09T05:13:21.236Z,97008.81
2024-05-09T05:15:51.367Z,97025.56
2024-05-09T05:18:18.982Z,96993.72
2024-05-09T05:20:46.312Z,97025.19
2024-05-09T05:23:15.264Z,97030.31
2024-05-09T05:25:42.954Z,97026.38
2024-05-09T05:28:10.018Z,97033.50
2024-05-09T05:30:38.312Z,97027.09
2024-05-09T05:33:06.946Z,96998.72
2024-05-09T05:35:35.000Z,97005.63
2024-05-09T05:38:06.509Z,97002.03
2024-05-09T05:40:37.072Z,97040.25
2024-05-09T05:43:06.099Z,97038.19
2024-05-09T05:45:33.128Z,97044.66
2024-05-09T05:48:00.527Z,97027.13
2024-05-09T05:50:35.258Z,97028.69
2024-05-09T05:53:09.107Z,97054.94
2024-05-09T05:55:37.371Z,97000.72
2024-05-09T05:58:04.629Z,96984.69
2024-05-09T06:00:38.376Z,96997.44
2024-05-09T06:03:08.437Z,97043.59
2024-05-09T06:05:37.162Z,97005.25
2024-05-09T06:08:04.827Z,97010.06
2024-05-09T06:10:38.085Z,97024.38
2024-05-09T06:13:08.123Z,97055.47
2024-05-09T06:15:35.031Z,96944.16
2024-05-09T06:18:02.348Z,97052.34
2024-05-09T06:20:35.783Z,97000.22
2024-05-09T06:23:06.368Z,97042.41
2024-05-09T06:25:34.315Z,97012.88
2024-05-09T06:28:01.709Z,97046.69
2024-05-09T06:30:37.151Z,97053.88
2024-05-09T06:33:08.023Z,97056.69
2024-05-09T06:35:36.665Z,97051.47
2024-05-09T06:38:04.055Z,97068.28
2024-05-09T06:40:37.307Z,97069.88
2024-05-09T06:43:11.706Z,97065.00
2024-05-09T06:45:40.015Z,97052.25
2024-05-09T06:48:09.254Z,97060.75
2024-05-09T06:50:38.491Z,97049.94
2024-05-09T06:53:07.502Z,97015.59
2024-05-09T06:55:34.744Z,97052.31
2024-05-09T06:58:01.756Z,97029.22
2024-05-09T07:00:35.746Z,97023.53
2024-05-09T07:03:16.510Z,97052.41
2024-05-09T07:05:46.842Z,97043.59
2024-05-09T07:08:14.750Z,97023.56
2024-05-09T07:10:41.851Z,97055.78
2024-05-09T07:13:10.134Z,97043.63
2024-05-09T07:15:37.254Z,97062.56
2024-05-09T07:18:18.427Z,97061.59
2024-05-09T07:20:47.159Z,97028.13
2024-05-09T07:23:14.725Z,97012.09
2024-05-09T07:25:42.179Z,97073.31
2024-05-09T07:28:14.751Z,96994.41
2024-05-09T07:30:42.154Z,97051.53
2024-05-09T07:33:09.383Z,97070.50
2024-05-09T07:35:36.565Z,97055.28
2024-05-09T07:38:03.672Z,97011.38
2024-05-09T07:40:35.908Z,97048.16
2024-05-09T07:43:13.430Z,96989.81
2024-05-09T07:45:50.422Z,97039.44
2024-05-09T07:52:38.568Z,97066.38
2024-05-09T07:53:47.133Z,97045.75
2024-05-09T07:56:18.592Z,97063.44
2024-05-09T07:58:46.594Z,96959.78
2024-05-09T08:01:13.627Z,96968.88
2024-05-09T08:03:40.677Z,97064.16
2024-05-09T08:06:07.731Z,97042.94
2024-05-09T08:08:34.647Z,97050.72
2024-05-09T08:11:03.286Z,97065.50
2024-05-09T08:13:30.121Z,97057.38
2024-05-09T08:15:57.147Z,97011.34
2024-05-09T08:18:24.170Z,97058.16
2024-05-09T08:20:51.214Z,96977.81
2024-05-09T08:23:18.218Z,97074.44
2024-05-09T08:25:45.120Z,97048.19
2024-05-09T08:28:12.246Z,97039.78
2024-05-09T08:30:39.405Z,96957.53
2024-05-09T08:33:07.582Z,97051.81
2024-05-09T08:35:35.828Z,96969.22
2024-05-09T08:38:04.250Z,97086.28
2024-05-09T08:40:35.753Z,97081.38
2024-05-09T08:43:09.492Z,97081.38
2024-05-09T08:45:39.170Z,97077.75
2024-05-09T08:48:09.044Z,97023.38
2024-05-09T08:50:40.487Z,97063.94
2024-05-09T08:53:08.728Z,97094.94
2024-05-09T08:55:40.345Z,97082.78
2024-05-09T08:58:12.753Z,97024.06
2024-05-09T09:00:42.330Z,97083.63
2024-05-09T09:03:11.653Z,97044.22
2024-05-09T09:05:40.699Z,97070.19
2024-05-09T09:08:08.810Z,97059.97
2024-05-09T09:10:38.105Z,97061.56
2024-05-09T09:13:07.335Z,97101.41
2024-05-09T09:15:34.374Z,96994.81
2024-05-09T09:18:01.552Z,97040.84
2024-05-09T09:20:35.502Z,97089.34
2024-05-09T09:23:04.553Z,97011.00
2024-05-09T09:25:32.199Z,97082.47
2024-05-09T09:27:59.462Z,97090.97
2024-05-09T09:30:36.387Z,97082.78
2024-05-09T09:33:06.548Z,96921.28
2024-05-09T09:35:35.934Z,97085.75
2024-05-09T09:38:04.650Z,96959.88
2024-05-09T09:40:37.572Z,97053.56
2024-05-09T09:43:14.801Z,97030.47
2024-05-09T09:45:44.312Z,97081.00
2024-05-09T09:48:14.762Z,97087.66
2024-05-09T09:50:42.397Z,97083.47
2024-05-09T09:53:10.356Z,97027.69
2024-05-09T09:55:38.553Z,96994.94
2024-05-09T09:58:08.759Z,97040.16
2024-05-09T10:00:38.255Z,97071.25
2024-05-09T10:03:05.614Z,97056.63
2024-05-09T10:05:34.156Z,97083.28
2024-05-09T10:08:06.199Z,97065.84
2024-05-09T10:10:35.547Z,97010.00
2024-05-09T10:13:07.394Z,96982.22
2024-05-09T10:15:45.903Z,97078.59
2024-05-09T10:18:13.262Z,96914.34
2024-05-09T10:20:44.844Z,97005.56
2024-05-09T10:23:34.613Z,97065.81
2024-05-09T10:26:05.195Z,97042.09
2024-05-09T10:28:38.092Z,97061.56
2024-05-09T10:31:15.577Z,97059.63
2024-05-09T10:33:51.031Z,97113.25
2024-05-09T10:36:21.169Z,96930.78
2024-05-09T10:38:52.536Z,97068.91
2024-05-09T10:41:20.727Z,97064.88
2024-05-09T10:43:48.395Z,97054.91
2024-05-09T10:46:15.873Z,97030.13
2024-05-09T10:48:44.438Z,97018.81
2024-05-09T10:51:11.996Z,97055.53
2024-05-09T10:53:46.258Z,97023.78
2024-05-09T10:56:17.153Z,97059.56
2024-05-09T10:58:44.292Z,97066.09
2024-05-09T11:01:12.057Z,96970.09
2024-05-09T11:03:39.602Z,97054.88
2024-05-09T11:06:07.670Z,97012.53
2024-05-09T11:08:35.991Z,97053.84
2024-05-09T11:11:07.119Z,97029.31
2024-05-09T11:13:36.472Z,97030.72
2024-05-09T11:16:04.954Z,97020.56
2024-05-09T11:18:36.529Z,97012.63
2024-05-09T11:21:12.837Z,97012.09
2024-05-09T11:23:40.426Z,96946.19
2024-05-09T11:26:07.660Z,96933.84
2024-05-09T11:28:34.590Z,96991.31
2024-05-09T11:31:10.161Z,96939.78
2024-05-09T11:33:42.486Z,97050.22
2024-05-09T11:36:09.756Z,96780.59
2024-05-09T11:38:36.839Z,97033.81
2024-05-09T11:41:04.925Z,96970.72
2024-05-09T11:43:32.205Z,96961.19
2024-05-09T11:45:59.973Z,97045.94
2024-05-09T11:48:27.411Z,96967.13
2024-05-09T11:50:55.754Z,96554.06
2024-05-09T11:53:23.004Z,97052.03
2024-05-09T11:55:50.083Z,97039.72
2024-05-09T11:58:18.748Z,96997.03
2024-05-09T12:00:46.970Z,97052.63
2024-05-09T12:03:14.433Z,97042.63
2024-05-09T12:05:41.611Z,97014.38
2024-05-09T12:08:08.655Z,97042.56
2024-05-09T12:10:36.806Z,97042.16
2024-05-09T12:13:05.968Z,97042.47
2024-05-09T12:15:36.830Z,96950.94
2024-05-09T12:18:05.318Z,96785.50
2024-05-09T12:20:37.943Z,97029.09
2024-05-09T12:23:07.870Z,97011.75
2024-05-09T12:25:36.265Z,97038.75
2024-05-09T12:28:03.569Z,97030.91
2024-05-09T12:30:36.680Z,97024.38
2024-05-09T12:33:09.198Z,97032.88
2024-05-09T12:35:37.971Z,97030.72
2024-05-09T12:38:05.223Z,97040.38
2024-05-09T12:40:36.769Z,96985.28
2024-05-09T12:43:09.740Z,97042.03
2024-05-09T12:45:38.107Z,97028.47
2024-05-09T12:48:08.410Z,97026.03
2024-05-09T12:50:36.921Z,97010.88
2024-05-09T12:53:05.220Z,96934.44
2024-05-09T12:55:40.986Z,97038.09
2024-05-09T12:58:16.484Z,97015.75
2024-05-09T13:00:44.442Z,96990.25
2024-05-09T13:03:11.556Z,96986.31
2024-05-09T13:05:41.378Z,97017.63
2024-05-09T13:08:08.791Z,96982.19
2024-05-09T13:10:36.175Z,97016.09
2024-05-09T13:13:03.266Z,97015.84
2024-05-09T13:15:31.588Z,97006.00
2024-05-09T13:18:02.222Z,97005.38
2024-05-09T13:20:33.811Z,96979.59
2024-05-09T13:23:05.407Z,96943.53
2024-05-09T13:25:34.808Z,96969.06
2024-05-09T13:28:02.450Z,97000.91
2024-05-09T13:30:38.271Z,97013.66
2024-05-09T13:33:12.426Z,96999.75
2024-05-09T13:35:47.844Z,96964.38
2024-05-09T13:38:19.065Z,96885.44
2024-05-09T13:40:46.261Z,96940.59
2024-05-09T13:43:13.742Z,96992.28
2024-05-09T13:45:41.011Z,97006.72
2024-05-09T13:48:10.018Z,97005.97
2024-05-09T13:50:37.480Z,97006.88
2024-05-09T13:53:06.976Z,96987.19
2024-05-09T13:55:35.616Z,96968.06
2024-05-09T13:58:03.191Z,96960.97
2024-05-09T14:00:42.255Z,97003.88
2024-05-09T14:03:15.534Z,96899.59
2024-05-09T14:05:43.288Z,96981.56
2024-05-09T14:08:10.518Z,96991.09
2024-05-09T14:10:44.043Z,97011.00
2024-05-09T14:13:11.659Z,96948.16
2024-05-09T14:15:38.980Z,97018.94
2024-05-09T14:18:08.061Z,97015.00
2024-05-09T14:20:36.331Z,96974.91
2024-05-09T14:23:03.165Z,97004.78
2024-05-09T14:25:35.101Z,97021.13
2024-05-09T14:28:04.150Z,97023.53
2024-05-09T14:30:36.668Z,97029.13
2024-05-09T14:33:06.501Z,97035.91
2024-05-09T14:35:34.288Z,97031.97
2024-05-09T14:38:01.343Z,97046.28
2024-05-09T14:40:39.653Z,96972.03
2024-05-09T14:43:14.784Z,97042.19
2024-05-09T14:45:42.380Z,96783.88
2024-05-09T14:48:10.249Z,97020.59
2024-05-09T14:50:39.505Z,96971.13
2024-05-09T14:53:08.844Z,97030.13
2024-05-09T14:55:37.571Z,97037.06
2024-05-09T14:58:09.720Z,97039.84
2024-05-09T15:00:47.899Z,97017.47
2024-05-09T15:03:18.733Z,97042.13
2024-05-09T15:05:47.198Z,97038.09
2024-05-09T15:08:14.450Z,97049.25
2024-05-09T15:10:41.309Z,97039.72
2024-05-09T15:13:09.869Z,97007.06
2024-05-09T15:15:40.467Z,96916.72
2024-05-09T15:18:07.715Z,97019.16
2024-05-09T15:20:37.067Z,97027.00
2024-05-09T15:23:06.404Z,97025.72
2024-05-09T15:25:34.548Z,96987.47
2024-05-09T15:28:01.660Z,97028.13
2024-05-09T15:30:32.036Z,97030.97
2024-05-09T15:33:03.368Z,97031.44
2024-05-09T15:35:30.685Z,96992.63
2024-05-09T15:37:57.668Z,96924.16
2024-05-09T15:40:31.624Z,96984.00
2024-05-09T15:43:06.231Z,96988.88
2024-05-09T15:45:34.276Z,96996.47
2024-05-09T15:48:03.126Z,96972.97
2024-05-09T15:50:37.152Z,96982.56
2024-05-09T15:53:08.427Z,97022.78
2024-05-09T15:55:36.167Z,97030.75
2024-05-09T15:58:04.375Z,97020.78
2024-05-09T16:00:37.594Z,97026.38
2024-05-09T16:03:12.024Z,96970.19
2024-05-09T16:05:41.011Z,96955.47
2024-05-09T16:08:08.701Z,97037.13
2024-05-09T16:10:37.058Z,96992.09
2024-05-09T16:13:05.254Z,97027.56
2024-05-09T16:15:32.454Z,97012.84
2024-05-09T16:18:00.335Z,96975.78
2024-05-09T16:20:35.133Z,96979.34
2024-05-09T16:23:07.289Z,96992.91
2024-05-09T16:25:34.250Z,97043.09
2024-05-09T16:28:01.914Z,96999.66
2024-05-09T16:30:34.566Z,97035.13
2024-05-09T16:33:04.648Z,96942.25
2024-05-09T16:35:32.375Z,97042.72
2024-05-09T16:38:01.544Z,97046.28
2024-05-09T16:40:36.318Z,97043.50
2024-05-09T16:43:07.297Z,97040.72
2024-05-09T16:45:34.634Z,96969.38
2024-05-09T16:48:01.897Z,97014.81
2024-05-09T16:50:33.377Z,97042.69
2024-05-09T16:53:03.267Z,97047.09
2024-05-09T16:55:30.431Z,97045.09
2024-05-09T16:57:58.137Z,97051.88
2024-05-09T17:00:35.828Z,97058.25
2024-05-09T17:03:09.328Z,97061.44
2024-05-09T17:05:37.033Z,97061.44
2024-05-09T17:08:04.503Z,97027.16
2024-05-09T17:10:33.935Z,97059.03
2024-05-09T17:13:06.761Z,97063.44
2024-05-09T17:15:35.773Z,96966.56
2024-05-09T17:18:04.442Z,97014.00
2024-05-09T17:20:34.800Z,97063.03
2024-05-09T17:23:05.086Z,97072.56
2024-05-09T17:25:32.749Z,97068.56
2024-05-09T17:28:06.517Z,97056.59
2024-05-09T17:30:39.472Z,97036.66
2024-05-09T17:33:09.603Z,97079.28
2024-05-09T17:35:38.186Z,97091.59
2024-05-09T17:38:06.520Z,97078.88
2024-05-09T17:40:36.451Z,97082.09
2024-05-09T17:43:06.422Z,97086.88
2024-05-09T17:45:34.938Z,97094.78
2024-05-09T17:48:02.574Z,97050.50
2024-05-09T17:50:35.314Z,97105.56
2024-05-09T17:53:04.944Z,97097.19
2024-05-09T17:55:32.171Z,97095.59
2024-05-09T17:57:59.506Z,97098.38
2024-05-09T18:02:56.640Z,97093.97
2024-05-09T18:05:23.656Z,97090.72
2024-05-09T18:07:50.809Z,97046.44
2024-05-09T18:10:25.255Z,97110.69
2024-05-09T18:12:56.822Z,97055.19
2024-05-09T18:15:23.846Z,97111.44
2024-05-09T18:17:52.315Z,97115.78
2024-05-09T18:20:28.740Z,97116.97
2024-05-09T18:23:05.601Z,97117.00
2024-05-09T18:25:32.458Z,97118.19
2024-05-09T18:28:02.804Z,97118.56
2024-05-09T18:30:34.769Z,97139.25
2024-05-09T18:33:05.218Z,97132.13
2024-05-09T18:35:33.563Z,97065.47
2024-05-09T18:38:00.668Z,97120.56
2024-05-09T18:40:33.293Z,97139.31
2024-05-09T18:43:04.646Z,97128.13
2024-05-09T18:45:32.566Z,97134.16
2024-05-09T18:48:00.414Z,97128.63
2024-05-09T18:50:34.871Z,97123.34
2024-05-09T18:53:10.848Z,97144.94
2024-05-09T18:55:38.502Z,97085.09
2024-05-09T18:58:05.769Z,97142.16
2024-05-09T19:00:36.608Z,97171.03
2024-05-09T19:03:12.218Z,97147.72
2024-05-09T19:05:41.826Z,97167.22
2024-05-09T19:08:09.785Z,97155.28
2024-05-09T19:10:40.228Z,97173.59
2024-05-09T19:13:11.912Z,97159.28
2024-05-09T19:15:41.736Z,97170.75
2024-05-09T19:18:10.497Z,97172.81
2024-05-09T19:20:38.158Z,97170.44
2024-05-09T19:23:06.617Z,97174.06
2024-05-09T19:25:34.863Z,97152.91
2024-05-09T19:28:01.958Z,97175.25
2024-05-09T19:30:37.280Z,97188.00
2024-05-09T19:33:09.226Z,97183.22
2024-05-09T19:35:36.991Z,97180.00
2024-05-09T19:38:04.406Z,97082.59
2024-05-09T19:40:33.621Z,97130.13
2024-05-09T19:43:03.096Z,97175.25
2024-05-09T19:45:30.859Z,97180.78
2024-05-09T19:47:58.472Z,97177.22
2024-05-09T19:50:32.899Z,97125.69
2024-05-09T19:53:08.606Z,97194.34
2024-05-09T19:55:35.553Z,97092.59
2024-05-09T19:58:05.434Z,97133.38
2024-05-09T20:00:39.815Z,97171.69
2024-05-09T20:03:09.601Z,97156.50
2024-05-09T20:05:37.682Z,97165.69
2024-05-09T20:08:06.031Z,97174.47
2024-05-09T20:10:35.313Z,97136.97
2024-05-09T20:13:04.826Z,97182.47
2024-05-09T20:15:34.940Z,97189.59
2024-05-09T20:18:02.588Z,97136.88
2024-05-09T20:20:37.284Z,97183.25
2024-05-09T20:23:08.490Z,97191.19
2024-05-09T20:25:35.377Z,97191.16
2024-05-09T20:28:02.470Z,97184.00
2024-05-09T20:30:32.831Z,97199.09
2024-05-09T20:33:07.590Z,97185.16
2024-05-09T20:35:35.875Z,97119.28
2024-05-09T20:38:03.811Z,97193.56
2024-05-09T20:40:35.715Z,97192.00
2024-05-09T20:43:06.904Z,97190.31
2024-05-09T20:45:34.768Z,97191.94
2024-05-09T20:48:02.172Z,97191.16
2024-05-09T20:50:37.076Z,97192.78
2024-05-09T20:53:14.897Z,97186.34
2024-05-09T20:55:43.723Z,97195.09
2024-05-09T20:58:11.239Z,97198.66
2024-05-09T21:00:42.118Z,97195.91
2024-05-09T21:03:13.328Z,97195.09
2024-05-09T21:05:41.354Z,97161.44
2024-05-09T21:08:08.698Z,97174.25
2024-05-09T21:10:37.098Z,97152.25
2024-05-09T21:13:05.121Z,97198.84
2024-05-09T21:15:32.692Z,97201.34
2024-05-09T21:17:59.866Z,97206.50
2024-05-09T21:22:57.447Z,97212.28
2024-05-09T21:25:24.489Z,97180.41
2024-05-09T21:27:51.705Z,97135.34
2024-05-09T21:30:27.909Z,97202.84
2024-05-09T21:33:05.007Z,97174.38
2024-05-09T21:35:32.147Z,97192.84
2024-05-09T21:37:58.962Z,97209.25
2024-05-09T21:40:33.337Z,97213.28
2024-05-09T21:43:02.533Z,97207.69
2024-05-09T21:45:29.623Z,97220.47
2024-05-09T21:47:56.691Z,97207.53
2024-05-09T21:50:31.762Z,97213.09
2024-05-09T21:53:06.332Z,97220.31
2024-05-09T21:55:33.408Z,97198.84
2024-05-09T21:58:00.516Z,97211.66
2024-05-09T22:00:34.793Z,97186.41
2024-05-09T22:03:05.292Z,97196.44
2024-05-09T22:05:32.849Z,97213.19
2024-05-09T22:08:00.145Z,97213.19
2024-05-09T22:10:33.257Z,97212.38
2024-05-09T22:13:02.523Z,97206.03
2024-05-09T22:15:29.528Z,97175.25
2024-05-09T22:17:57.366Z,97210.03
2024-05-09T22:20:33.926Z,97213.09
2024-05-09T22:23:04.894Z,97211.16
2024-05-09T22:25:32.566Z,97211.19
2024-05-09T22:28:01.118Z,97216.44
2024-05-09T22:30:35.701Z,97202.41
2024-05-09T22:33:07.138Z,97203.56
2024-05-09T22:35:34.341Z,97158.41
2024-05-09T22:38:02.807Z,97206.56
2024-05-09T22:40:38.884Z,97207.31
2024-05-09T22:43:16.612Z,97181.41
2024-05-09T22:45:43.922Z,97163.47
2024-05-09T22:48:10.934Z,97193.88
2024-05-09T22:50:37.842Z,97192.34
2024-05-09T22:53:05.718Z,97114.31
2024-05-09T22:55:32.665Z,97193.94
2024-05-09T22:57:59.604Z,97110.38
2024-05-09T23:00:31.478Z,97186.56
2024-05-09T23:03:03.420Z,97180.88
2024-05-09T23:05:32.522Z,97176.16
2024-05-09T23:08:01.561Z,97176.03
2024-05-09T23:10:35.491Z,97175.97
2024-05-09T23:13:04.594Z,97175.19
2024-05-09T23:15:31.797Z,97175.22
2024-05-09T23:17:59.133Z,97165.72
2024-05-09T23:20:33.529Z,97172.22
2024-05-09T23:23:05.581Z,97175.84
2024-05-09T23:25:32.619Z,97181.09
2024-05-09T23:27:59.731Z,97112.09
2024-05-09T23:30:37.021Z,97173.19
2024-05-09T23:33:07.708Z,97165.63
2024-05-09T23:35:34.853Z,97171.97
2024-05-09T23:38:01.805Z,97182.34
2024-05-09T23:40:37.290Z,97097.09
2024-05-09T23:43:07.639Z,97090.91
2024-05-09T23:45:35.024Z,97053.91
2024-05-09T23:48:02.219Z,97139.84
2024-05-09T23:52:59.027Z,97167.13
2024-05-09T23:55:25.965Z,97128.66
2024-05-09T23:57:52.925Z,97120.09
